sensor_id;sensor_type;location;lat;lon;timestamp;P1;durP1;ratioP1;P2;durP2;ratioP2
1701;SDS011;848;48.354;10.064;2023-09-12T00:00:08;15.05;;;9.45;;
1701;SDS011;848;48.354;10.064;2023-09-12T00:02:36;14.93;;;9.38;;
1701;SDS011;848;48.354;10.064;2023-09-12T00:05:03;15.02;;;8.75;;
1701;SDS011;848;48.354;10.064;2023-09-12T00:07:31;14.02;;;9.27;;
1701;SDS011;848;48.354;10.064;2023-09-12T00:09:59;20.02;;;8.50;;
1701;SDS011;848;48.354;10.064;2023-09-12T00:12:26;10.80;;;8.70;;
1701;SDS011;848;48.354;10.064;2023-09-12T00:14:54;10.77;;;9.68;;
1701;SDS011;848;48.354;10.064;2023-09-12T00:17:21;11.57;;;9.57;;
1701;SDS011;848;48.354;10.064;2023-09-12T00:19:47;15.23;;;9.48;;
1701;SDS011;848;48.354;10.064;2023-09-12T00:22:14;12.60;;;9.05;;
1701;SDS011;848;48.354;10.064;2023-09-12T00:24:41;12.00;;;9.27;;
1701;SDS011;848;48.354;10.064;2023-09-12T00:27:09;12.00;;;10.80;;
1701;SDS011;848;48.354;10.064;2023-09-12T00:29:36;12.05;;;9.90;;
1701;SDS011;848;48.354;10.064;2023-09-12T00:32:03;12.20;;;9.68;;
1701;SDS011;848;48.354;10.064;2023-09-12T00:34:30;11.18;;;9.93;;
1701;SDS011;848;48.354;10.064;2023-09-12T00:36:57;10.52;;;9.20;;
1701;SDS011;848;48.354;10.064;2023-09-12T00:39:24;11.32;;;10.10;;
1701;SDS011;848;48.354;10.064;2023-09-12T00:41:51;13.40;;;10.10;;
1701;SDS011;848;48.354;10.064;2023-09-12T00:44:19;13.75;;;10.43;;
1701;SDS011;848;48.354;10.064;2023-09-12T00:46:46;13.05;;;10.02;;
1701;SDS011;848;48.354;10.064;2023-09-12T00:49:15;13.68;;;9.88;;
1701;SDS011;848;48.354;10.064;2023-09-12T00:51:43;16.83;;;10.15;;
1701;SDS011;848;48.354;10.064;2023-09-12T00:54:11;11.63;;;9.50;;
1701;SDS011;848;48.354;10.064;2023-09-12T00:56:38;16.60;;;9.23;;
1701;SDS011;848;48.354;10.064;2023-09-12T00:59:05;16.27;;;10.20;;
1701;SDS011;848;48.354;10.064;2023-09-12T01:01:33;14.48;;;10.48;;
1701;SDS011;848;48.354;10.064;2023-09-12T01:04:01;14.15;;;9.65;;
1701;SDS011;848;48.354;10.064;2023-09-12T01:06:28;13.30;;;9.50;;
1701;SDS011;848;48.354;10.064;2023-09-12T01:08:57;14.13;;;10.25;;
1701;SDS011;848;48.354;10.064;2023-09-12T01:11:23;13.77;;;10.07;;
1701;SDS011;848;48.354;10.064;2023-09-12T01:13:50;15.05;;;11.35;;
1701;SDS011;848;48.354;10.064;2023-09-12T01:16:17;15.02;;;9.82;;
1701;SDS011;848;48.354;10.064;2023-09-12T01:18:45;12.35;;;10.55;;
1701;SDS011;848;48.354;10.064;2023-09-12T01:24:12;12.93;;;9.85;;
1701;SDS011;848;48.354;10.064;2023-09-12T01:26:59;13.48;;;10.10;;
1701;SDS011;848;48.354;10.064;2023-09-12T01:29:40;13.35;;;10.30;;
1701;SDS011;848;48.354;10.064;2023-09-12T01:32:09;14.23;;;9.40;;
1701;SDS011;848;48.354;10.064;2023-09-12T01:34:37;14.68;;;9.70;;
1701;SDS011;848;48.354;10.064;2023-09-12T01:37:04;14.50;;;10.32;;
1701;SDS011;848;48.354;10.064;2023-09-12T01:39:30;13.43;;;10.23;;
1701;SDS011;848;48.354;10.064;2023-09-12T01:41:58;12.85;;;10.38;;
1701;SDS011;848;48.354;10.064;2023-09-12T01:44:27;12.00;;;8.98;;
1701;SDS011;848;48.354;10.064;2023-09-12T01:46:55;11.40;;;9.10;;
1701;SDS011;848;48.354;10.064;2023-09-12T01:49:27;16.08;;;9.30;;
1701;SDS011;848;48.354;10.064;2023-09-12T01:51:56;12.65;;;9.25;;
1701;SDS011;848;48.354;10.064;2023-09-12T01:54:24;18.95;;;11.05;;
1701;SDS011;848;48.354;10.064;2023-09-12T01:56:53;12.95;;;9.70;;
1701;SDS011;848;48.354;10.064;2023-09-12T01:59:22;19.48;;;10.00;;
1701;SDS011;848;48.354;10.064;2023-09-12T02:01:51;13.50;;;9.45;;
1701;SDS011;848;48.354;10.064;2023-09-12T02:04:18;13.25;;;10.38;;
1701;SDS011;848;48.354;10.064;2023-09-12T02:06:45;17.45;;;9.88;;
1701;SDS011;848;48.354;10.064;2023-09-12T02:09:11;16.90;;;10.32;;
1701;SDS011;848;48.354;10.064;2023-09-12T02:11:38;14.45;;;9.80;;
1701;SDS011;848;48.354;10.064;2023-09-12T02:14:05;12.52;;;10.13;;
1701;SDS011;848;48.354;10.064;2023-09-12T02:16:35;14.88;;;10.40;;
1701;SDS011;848;48.354;10.064;2023-09-12T02:19:04;13.65;;;9.95;;
1701;SDS011;848;48.354;10.064;2023-09-12T02:21:31;12.95;;;10.73;;
1701;SDS011;848;48.354;10.064;2023-09-12T02:23:58;12.82;;;10.63;;
1701;SDS011;848;48.354;10.064;2023-09-12T02:26:25;13.35;;;10.50;;
1701;SDS011;848;48.354;10.064;2023-09-12T02:28:52;12.10;;;9.27;;
1701;SDS011;848;48.354;10.064;2023-09-12T02:31:19;14.48;;;9.60;;
1701;SDS011;848;48.354;10.064;2023-09-12T02:33:46;10.55;;;9.10;;
1701;SDS011;848;48.354;10.064;2023-09-12T02:36:15;13.77;;;9.43;;
1701;SDS011;848;48.354;10.064;2023-09-12T02:38:42;10.95;;;9.57;;
1701;SDS011;848;48.354;10.064;2023-09-12T02:41:09;14.63;;;9.73;;
1701;SDS011;848;48.354;10.064;2023-09-12T02:43:35;15.80;;;10.38;;
1701;SDS011;848;48.354;10.064;2023-09-12T02:46:02;15.77;;;10.82;;
1701;SDS011;848;48.354;10.064;2023-09-12T02:48:29;15.30;;;11.18;;
1701;SDS011;848;48.354;10.064;2023-09-12T02:50:56;14.10;;;11.00;;
1701;SDS011;848;48.354;10.064;2023-09-12T02:53:24;14.40;;;10.07;;
1701;SDS011;848;48.354;10.064;2023-09-12T02:55:51;15.05;;;11.32;;
1701;SDS011;848;48.354;10.064;2023-09-12T02:58:19;17.67;;;11.45;;
1701;SDS011;848;48.354;10.064;2023-09-12T03:00:46;12.50;;;10.70;;
1701;SDS011;848;48.354;10.064;2023-09-12T03:03:15;11.60;;;10.35;;
1701;SDS011;848;48.354;10.064;2023-09-12T03:05:42;15.18;;;11.43;;
1701;SDS011;848;48.354;10.064;2023-09-12T03:08:09;13.00;;;11.68;;
1701;SDS011;848;48.354;10.064;2023-09-12T03:10:37;14.73;;;11.63;;
1701;SDS011;848;48.354;10.064;2023-09-12T03:13:04;13.00;;;10.90;;
1701;SDS011;848;48.354;10.064;2023-09-12T03:15:35;14.85;;;9.90;;
1701;SDS011;848;48.354;10.064;2023-09-12T03:18:03;14.75;;;11.23;;
1701;SDS011;848;48.354;10.064;2023-09-12T03:20:30;16.00;;;11.52;;
1701;SDS011;848;48.354;10.064;2023-09-12T03:22:57;13.50;;;10.82;;
1701;SDS011;848;48.354;10.064;2023-09-12T03:25:24;26.27;;;12.63;;
1701;SDS011;848;48.354;10.064;2023-09-12T03:27:52;14.82;;;11.98;;
1701;SDS011;848;48.354;10.064;2023-09-12T03:30:19;15.05;;;13.35;;
1701;SDS011;848;48.354;10.064;2023-09-12T03:35:27;14.80;;;11.75;;
1701;SDS011;848;48.354;10.064;2023-09-12T03:37:55;13.82;;;12.35;;
1701;SDS011;848;48.354;10.064;2023-09-12T03:40:22;14.20;;;12.77;;
1701;SDS011;848;48.354;10.064;2023-09-12T03:42:48;13.73;;;11.35;;
1701;SDS011;848;48.354;10.064;2023-09-12T03:45:15;14.38;;;12.55;;
1701;SDS011;848;48.354;10.064;2023-09-12T03:47:42;17.10;;;12.35;;
1701;SDS011;848;48.354;10.064;2023-09-12T03:50:11;17.30;;;11.82;;
1701;SDS011;848;48.354;10.064;2023-09-12T03:52:40;15.60;;;13.73;;
1701;SDS011;848;48.354;10.064;2023-09-12T03:55:07;15.73;;;13.07;;
1701;SDS011;848;48.354;10.064;2023-09-12T03:57:35;12.80;;;10.98;;
1701;SDS011;848;48.354;10.064;2023-09-12T04:00:02;13.70;;;11.60;;
1701;SDS011;848;48.354;10.064;2023-09-12T04:02:30;15.00;;;12.20;;
1701;SDS011;848;48.354;10.064;2023-09-12T04:04:57;12.30;;;10.90;;
1701;SDS011;848;48.354;10.064;2023-09-12T04:07:25;15.15;;;11.95;;
1701;SDS011;848;48.354;10.064;2023-09-12T04:09:53;15.30;;;11.75;;
1701;SDS011;848;48.354;10.064;2023-09-12T04:12:20;14.68;;;11.50;;
1701;SDS011;848;48.354;10.064;2023-09-12T04:14:48;14.77;;;13.27;;
1701;SDS011;848;48.354;10.064;2023-09-12T04:17:15;13.43;;;12.02;;
1701;SDS011;848;48.354;10.064;2023-09-12T04:19:42;14.15;;;12.40;;
1701;SDS011;848;48.354;10.064;2023-09-12T04:22:09;18.05;;;11.98;;
1701;SDS011;848;48.354;10.064;2023-09-12T04:24:36;13.40;;;11.15;;
1701;SDS011;848;48.354;10.064;2023-09-12T04:27:04;14.43;;;12.32;;
1701;SDS011;848;48.354;10.064;2023-09-12T04:29:32;13.02;;;11.40;;
1701;SDS011;848;48.354;10.064;2023-09-12T04:32:00;12.15;;;10.85;;
1701;SDS011;848;48.354;10.064;2023-09-12T04:34:27;13.05;;;11.65;;
1701;SDS011;848;48.354;10.064;2023-09-12T04:36:54;14.07;;;11.68;;
1701;SDS011;848;48.354;10.064;2023-09-12T04:39:21;14.20;;;11.80;;
1701;SDS011;848;48.354;10.064;2023-09-12T04:41:48;13.88;;;11.15;;
1701;SDS011;848;48.354;10.064;2023-09-12T04:44:16;13.77;;;11.45;;
1701;SDS011;848;48.354;10.064;2023-09-12T04:46:43;15.88;;;10.93;;
1701;SDS011;848;48.354;10.064;2023-09-12T04:49:11;12.35;;;11.15;;
1701;SDS011;848;48.354;10.064;2023-09-12T04:51:38;13.38;;;11.98;;
1701;SDS011;848;48.354;10.064;2023-09-12T04:54:05;14.20;;;12.70;;
1701;SDS011;848;48.354;10.064;2023-09-12T04:56:32;12.85;;;11.55;;
1701;SDS011;848;48.354;10.064;2023-09-12T04:58:59;12.63;;;11.32;;
1701;SDS011;848;48.354;10.064;2023-09-12T05:01:27;12.00;;;10.73;;
1701;SDS011;848;48.354;10.064;2023-09-12T05:03:54;14.38;;;12.88;;
1701;SDS011;848;48.354;10.064;2023-09-12T05:06:20;13.30;;;11.90;;
1701;SDS011;848;48.354;10.064;2023-09-12T05:08:47;14.55;;;12.05;;
1701;SDS011;848;48.354;10.064;2023-09-12T05:11:14;16.25;;;11.85;;
1701;SDS011;848;48.354;10.064;2023-09-12T05:13:41;13.10;;;11.80;;
1701;SDS011;848;48.354;10.064;2023-09-12T05:16:08;15.32;;;13.18;;
1701;SDS011;848;48.354;10.064;2023-09-12T05:18:36;15.98;;;12.27;;
1701;SDS011;848;48.354;10.064;2023-09-12T05:21:03;15.82;;;13.45;;
1701;SDS011;848;48.354;10.064;2023-09-12T05:23:30;13.93;;;12.43;;
1701;SDS011;848;48.354;10.064;2023-09-12T05:25:57;15.02;;;13.45;;
1701;SDS011;848;48.354;10.064;2023-09-12T05:28:24;15.73;;;13.93;;
1701;SDS011;848;48.354;10.064;2023-09-12T05:30:51;16.98;;;13.50;;
1701;SDS011;848;48.354;10.064;2023-09-12T05:33:19;17.85;;;13.25;;
1701;SDS011;848;48.354;10.064;2023-09-12T05:35:47;14.35;;;12.85;;
1701;SDS011;848;48.354;10.064;2023-09-12T05:38:14;14.35;;;12.95;;
1701;SDS011;848;48.354;10.064;2023-09-12T05:40:41;18.58;;;14.35;;
1701;SDS011;848;48.354;10.064;2023-09-12T05:43:08;17.88;;;14.70;;
1701;SDS011;848;48.354;10.064;2023-09-12T05:45:35;16.50;;;13.80;;
1701;SDS011;848;48.354;10.064;2023-09-12T05:48:02;19.98;;;16.88;;
1701;SDS011;848;48.354;10.064;2023-09-12T05:50:29;17.55;;;15.75;;
1701;SDS011;848;48.354;10.064;2023-09-12T05:52:57;19.48;;;16.00;;
1701;SDS011;848;48.354;10.064;2023-09-12T05:55:24;18.60;;;15.25;;
1701;SDS011;848;48.354;10.064;2023-09-12T05:57:51;18.65;;;15.60;;
1701;SDS011;848;48.354;10.064;2023-09-12T06:00:18;18.58;;;15.15;;
1701;SDS011;848;48.354;10.064;2023-09-12T06:02:45;19.30;;;15.80;;
1701;SDS011;848;48.354;10.064;2023-09-12T06:05:13;21.50;;;16.90;;
1701;SDS011;848;48.354;10.064;2023-09-12T06:07:40;20.45;;;16.15;;
1701;SDS011;848;48.354;10.064;2023-09-12T06:10:09;20.80;;;15.82;;
1701;SDS011;848;48.354;10.064;2023-09-12T06:12:36;22.25;;;16.88;;
1701;SDS011;848;48.354;10.064;2023-09-12T06:15:03;21.08;;;15.35;;
1701;SDS011;848;48.354;10.064;2023-09-12T06:17:30;22.15;;;17.42;;
1701;SDS011;848;48.354;10.064;2023-09-12T06:19:57;20.38;;;15.95;;
1701;SDS011;848;48.354;10.064;2023-09-12T06:22:24;19.30;;;15.80;;
1701;SDS011;848;48.354;10.064;2023-09-12T06:24:51;18.98;;;15.95;;
1701;SDS011;848;48.354;10.064;2023-09-12T06:27:21;19.42;;;15.13;;
1701;SDS011;848;48.354;10.064;2023-09-12T06:29:48;17.40;;;15.60;;
1701;SDS011;848;48.354;10.064;2023-09-12T06:32:15;18.10;;;14.77;;
1701;SDS011;848;48.354;10.064;2023-09-12T06:34:43;19.75;;;15.07;;
1701;SDS011;848;48.354;10.064;2023-09-12T06:37:10;24.73;;;15.35;;
1701;SDS011;848;48.354;10.064;2023-09-12T06:39:38;19.23;;;14.73;;
1701;SDS011;848;48.354;10.064;2023-09-12T06:42:05;20.98;;;15.73;;
1701;SDS011;848;48.354;10.064;2023-09-12T06:44:33;17.10;;;13.90;;
1701;SDS011;848;48.354;10.064;2023-09-12T06:47:00;17.67;;;15.75;;
1701;SDS011;848;48.354;10.064;2023-09-12T06:49:28;16.27;;;14.50;;
1701;SDS011;848;48.354;10.064;2023-09-12T06:51:57;18.50;;;15.65;;
1701;SDS011;848;48.354;10.064;2023-09-12T06:54:24;16.95;;;15.10;;
1701;SDS011;848;48.354;10.064;2023-09-12T06:56:51;15.98;;;14.30;;
1701;SDS011;848;48.354;10.064;2023-09-12T06:59:17;17.73;;;15.68;;
1701;SDS011;848;48.354;10.064;2023-09-12T07:01:46;15.88;;;14.30;;
1701;SDS011;848;48.354;10.064;2023-09-12T07:04:12;20.00;;;14.13;;
1701;SDS011;848;48.354;10.064;2023-09-12T07:06:39;18.38;;;15.75;;
1701;SDS011;848;48.354;10.064;2023-09-12T07:09:07;16.98;;;14.85;;
1701;SDS011;848;48.354;10.064;2023-09-12T07:11:36;17.27;;;13.88;;
1701;SDS011;848;48.354;10.064;2023-09-12T07:14:03;17.52;;;14.65;;
1701;SDS011;848;48.354;10.064;2023-09-12T07:16:30;22.20;;;13.65;;
1701;SDS011;848;48.354;10.064;2023-09-12T07:18:59;20.55;;;14.57;;
1701;SDS011;848;48.354;10.064;2023-09-12T07:21:25;16.92;;;14.32;;
1701;SDS011;848;48.354;10.064;2023-09-12T07:23:53;26.00;;;14.73;;
1701;SDS011;848;48.354;10.064;2023-09-12T07:26:20;19.60;;;13.73;;
1701;SDS011;848;48.354;10.064;2023-09-12T07:28:47;19.98;;;14.55;;
1701;SDS011;848;48.354;10.064;2023-09-12T07:31:15;17.27;;;14.45;;
1701;SDS011;848;48.354;10.064;2023-09-12T07:33:43;16.60;;;14.90;;
1701;SDS011;848;48.354;10.064;2023-09-12T07:36:11;17.20;;;15.40;;
1701;SDS011;848;48.354;10.064;2023-09-12T07:38:38;24.33;;;16.65;;
1701;SDS011;848;48.354;10.064;2023-09-12T07:41:06;16.70;;;14.57;;
1701;SDS011;848;48.354;10.064;2023-09-12T07:43:33;16.40;;;14.15;;
1701;SDS011;848;48.354;10.064;2023-09-12T07:46:00;19.20;;;14.63;;
1701;SDS011;848;48.354;10.064;2023-09-12T07:48:27;21.00;;;14.82;;
1701;SDS011;848;48.354;10.064;2023-09-12T07:50:53;17.30;;;15.45;;
1701;SDS011;848;48.354;10.064;2023-09-12T07:53:22;18.88;;;15.85;;
1701;SDS011;848;48.354;10.064;2023-09-12T07:55:49;21.88;;;15.68;;
1701;SDS011;848;48.354;10.064;2023-09-12T07:58:16;18.85;;;16.15;;
1701;SDS011;848;48.354;10.064;2023-09-12T08:00:44;18.60;;;15.13;;
1701;SDS011;848;48.354;10.064;2023-09-12T08:03:11;18.10;;;15.60;;
1701;SDS011;848;48.354;10.064;2023-09-12T08:05:38;19.48;;;16.70;;
1701;SDS011;848;48.354;10.064;2023-09-12T08:08:05;18.48;;;16.20;;
1701;SDS011;848;48.354;10.064;2023-09-12T08:10:33;19.38;;;15.90;;
1701;SDS011;848;48.354;10.064;2023-09-12T08:13:00;23.83;;;16.90;;
1701;SDS011;848;48.354;10.064;2023-09-12T08:15:27;18.45;;;16.45;;
1701;SDS011;848;48.354;10.064;2023-09-12T08:17:54;18.23;;;14.63;;
1701;SDS011;848;48.354;10.064;2023-09-12T08:20:21;19.80;;;17.10;;
1701;SDS011;848;48.354;10.064;2023-09-12T08:22:48;19.40;;;16.80;;
1701;SDS011;848;48.354;10.064;2023-09-12T08:25:15;21.07;;;17.27;;
1701;SDS011;848;48.354;10.064;2023-09-12T08:27:44;20.30;;;16.73;;
1701;SDS011;848;48.354;10.064;2023-09-12T08:30:11;19.13;;;16.57;;
1701;SDS011;848;48.354;10.064;2023-09-12T08:32:39;22.33;;;17.83;;
1701;SDS011;848;48.354;10.064;2023-09-12T08:35:08;27.13;;;16.70;;
1701;SDS011;848;48.354;10.064;2023-09-12T08:37:37;17.90;;;15.70;;
1701;SDS011;848;48.354;10.064;2023-09-12T08:40:05;23.83;;;17.93;;
1701;SDS011;848;48.354;10.064;2023-09-12T08:42:35;21.50;;;17.40;;
1701;SDS011;848;48.354;10.064;2023-09-12T08:45:12;19.50;;;15.60;;
1701;SDS011;848;48.354;10.064;2023-09-12T08:47:40;19.40;;;15.80;;
1701;SDS011;848;48.354;10.064;2023-09-12T08:50:10;16.53;;;14.80;;
1701;SDS011;848;48.354;10.064;2023-09-12T08:52:39;18.90;;;16.70;;
1701;SDS011;848;48.354;10.064;2023-09-12T08:55:07;25.77;;;16.07;;
1701;SDS011;848;48.354;10.064;2023-09-12T08:57:36;19.55;;;16.17;;
1701;SDS011;848;48.354;10.064;2023-09-12T09:00:04;17.17;;;15.37;;
1701;SDS011;848;48.354;10.064;2023-09-12T09:02:35;22.70;;;16.70;;
1701;SDS011;848;48.354;10.064;2023-09-12T09:05:03;15.93;;;14.20;;
1701;SDS011;848;48.354;10.064;2023-09-12T09:07:32;18.07;;;16.17;;
1701;SDS011;848;48.354;10.064;2023-09-12T09:10:01;24.63;;;15.80;;
1701;SDS011;848;48.354;10.064;2023-09-12T09:12:30;15.90;;;14.30;;
1701;SDS011;848;48.354;10.064;2023-09-12T09:14:56;22.90;;;15.97;;
1701;SDS011;848;48.354;10.064;2023-09-12T09:17:23;18.43;;;15.07;;
1701;SDS011;848;48.354;10.064;2023-09-12T09:19:52;18.33;;;14.97;;
1701;SDS011;848;48.354;10.064;2023-09-12T09:22:19;17.93;;;15.13;;
1701;SDS011;848;48.354;10.064;2023-09-12T09:24:48;17.37;;;15.50;;
1701;SDS011;848;48.354;10.064;2023-09-12T09:27:31;22.27;;;15.23;;
1701;SDS011;848;48.354;10.064;2023-09-12T09:29:59;18.80;;;14.80;;
1701;SDS011;848;48.354;10.064;2023-09-12T09:32:28;20.13;;;15.90;;
1701;SDS011;848;48.354;10.064;2023-09-12T09:34:56;18.43;;;15.33;;
1701;SDS011;848;48.354;10.064;2023-09-12T09:37:23;22.10;;;16.30;;
1701;SDS011;848;48.354;10.064;2023-09-12T09:39:50;20.03;;;14.90;;
1701;SDS011;848;48.354;10.064;2023-09-12T09:42:18;18.23;;;14.60;;
1701;SDS011;848;48.354;10.064;2023-09-12T09:44:45;16.53;;;14.83;;
1701;SDS011;848;48.354;10.064;2023-09-12T09:47:12;16.37;;;14.70;;
1701;SDS011;848;48.354;10.064;2023-09-12T09:49:38;19.53;;;15.07;;
1701;SDS011;848;48.354;10.064;2023-09-12T09:52:07;18.20;;;14.40;;
1701;SDS011;848;48.354;10.064;2023-09-12T09:54:34;15.43;;;13.87;;
1701;SDS011;848;48.354;10.064;2023-09-12T09:57:01;16.03;;;14.13;;
1701;SDS011;848;48.354;10.064;2023-09-12T09:59:30;19.33;;;15.27;;
1701;SDS011;848;48.354;10.064;2023-09-12T10:01:58;16.57;;;14.47;;
1701;SDS011;848;48.354;10.064;2023-09-12T10:04:28;19.00;;;14.83;;
1701;SDS011;848;48.354;10.064;2023-09-12T10:06:56;15.13;;;13.47;;
1701;SDS011;848;48.354;10.064;2023-09-12T10:09:26;16.87;;;15.13;;
1701;SDS011;848;48.354;10.064;2023-09-12T10:11:54;27.27;;;17.10;;
1701;SDS011;848;48.354;10.064;2023-09-12T10:14:23;24.30;;;14.50;;
1701;SDS011;848;48.354;10.064;2023-09-12T10:16:54;20.00;;;16.10;;
1701;SDS011;848;48.354;10.064;2023-09-12T10:19:29;17.80;;;15.47;;
1701;SDS011;848;48.354;10.064;2023-09-12T10:22:06;17.13;;;15.40;;
1701;SDS011;848;48.354;10.064;2023-09-12T10:24:37;19.27;;;14.43;;
1701;SDS011;848;48.354;10.064;2023-09-12T10:27:06;17.13;;;14.70;;
1701;SDS011;848;48.354;10.064;2023-09-12T10:29:35;21.20;;;16.63;;
1701;SDS011;848;48.354;10.064;2023-09-12T10:32:02;20.33;;;16.13;;
1701;SDS011;848;48.354;10.064;2023-09-12T10:34:30;15.87;;;14.27;;
1701;SDS011;848;48.354;10.064;2023-09-12T10:36:58;18.17;;;13.47;;
1701;SDS011;848;48.354;10.064;2023-09-12T10:39:27;17.80;;;15.90;;
1701;SDS011;848;48.354;10.064;2023-09-12T10:41:56;18.60;;;14.80;;
1701;SDS011;848;48.354;10.064;2023-09-12T10:44:25;14.33;;;12.90;;
1701;SDS011;848;48.354;10.064;2023-09-12T10:46:52;15.00;;;13.33;;
1701;SDS011;848;48.354;10.064;2023-09-12T10:49:20;17.77;;;13.67;;
1701;SDS011;848;48.354;10.064;2023-09-12T10:51:47;15.53;;;13.20;;
1701;SDS011;848;48.354;10.064;2023-09-12T10:54:16;16.13;;;13.80;;
1701;SDS011;848;48.354;10.064;2023-09-12T10:56:59;15.63;;;13.57;;
1701;SDS011;848;48.354;10.064;2023-09-12T10:59:28;17.13;;;13.03;;
1701;SDS011;848;48.354;10.064;2023-09-12T11:02:00;15.20;;;12.53;;
1701;SDS011;848;48.354;10.064;2023-09-12T11:04:53;14.30;;;12.87;;
1701;SDS011;848;48.354;10.064;2023-09-12T11:07:30;15.00;;;12.43;;
1701;SDS011;848;48.354;10.064;2023-09-12T11:12:49;14.87;;;13.30;;
1701;SDS011;848;48.354;10.064;2023-09-12T11:15:17;14.13;;;12.63;;
1701;SDS011;848;48.354;10.064;2023-09-12T11:17:46;14.57;;;12.70;;
1701;SDS011;848;48.354;10.064;2023-09-12T11:20:14;12.30;;;11.10;;
1701;SDS011;848;48.354;10.064;2023-09-12T11:22:42;16.20;;;12.50;;
1701;SDS011;848;48.354;10.064;2023-09-12T11:25:16;16.10;;;12.90;;
1701;SDS011;848;48.354;10.064;2023-09-12T11:28:05;14.67;;;12.40;;
1701;SDS011;848;48.354;10.064;2023-09-12T11:30:32;13.60;;;12.33;;
1701;SDS011;848;48.354;10.064;2023-09-12T11:33:02;13.80;;;12.20;;
1701;SDS011;848;48.354;10.064;2023-09-12T11:35:30;13.80;;;12.50;;
1701;SDS011;848;48.354;10.064;2023-09-12T11:38:03;15.77;;;13.20;;
1701;SDS011;848;48.354;10.064;2023-09-12T11:40:41;13.17;;;11.20;;
1701;SDS011;848;48.354;10.064;2023-09-12T11:43:19;15.20;;;13.13;;
1701;SDS011;848;48.354;10.064;2023-09-12T11:45:47;12.87;;;11.30;;
1701;SDS011;848;48.354;10.064;2023-09-12T11:48:15;14.27;;;11.33;;
1701;SDS011;848;48.354;10.064;2023-09-12T11:50:42;13.53;;;12.23;;
1701;SDS011;848;48.354;10.064;2023-09-12T11:53:18;13.73;;;12.33;;
1701;SDS011;848;48.354;10.064;2023-09-12T11:55:47;14.70;;;12.00;;
1701;SDS011;848;48.354;10.064;2023-09-12T11:58:16;14.27;;;12.83;;
1701;SDS011;848;48.354;10.064;2023-09-12T12:00:45;15.67;;;12.50;;
1701;SDS011;848;48.354;10.064;2023-09-12T12:03:13;13.30;;;12.10;;
1701;SDS011;848;48.354;10.064;2023-09-12T12:05:40;12.33;;;11.13;;
1701;SDS011;848;48.354;10.064;2023-09-12T12:08:07;13.30;;;11.20;;
1701;SDS011;848;48.354;10.064;2023-09-12T12:10:34;12.70;;;11.33;;
1701;SDS011;848;48.354;10.064;2023-09-12T12:13:03;14.20;;;12.90;;
1701;SDS011;848;48.354;10.064;2023-09-12T12:15:31;12.47;;;11.20;;
1701;SDS011;848;48.354;10.064;2023-09-12T12:17:58;11.93;;;10.70;;
1701;SDS011;848;48.354;10.064;2023-09-12T12:20:25;11.80;;;10.63;;
1701;SDS011;848;48.354;10.064;2023-09-12T12:22:55;14.63;;;11.50;;
1701;SDS011;848;48.354;10.064;2023-09-12T12:25:22;10.60;;;9.63;;
1701;SDS011;848;48.354;10.064;2023-09-12T12:27:49;11.80;;;10.60;;
1701;SDS011;848;48.354;10.064;2023-09-12T12:30:17;12.30;;;10.80;;
1701;SDS011;848;48.354;10.064;2023-09-12T12:32:46;12.40;;;11.30;;
1701;SDS011;848;48.354;10.064;2023-09-12T12:35:18;11.90;;;10.87;;
1701;SDS011;848;48.354;10.064;2023-09-12T12:37:45;12.23;;;10.90;;
1701;SDS011;848;48.354;10.064;2023-09-12T12:40:14;10.63;;;9.70;;
1701;SDS011;848;48.354;10.064;2023-09-12T12:42:42;13.00;;;9.80;;
1701;SDS011;848;48.354;10.064;2023-09-12T12:45:11;11.30;;;9.87;;
1701;SDS011;848;48.354;10.064;2023-09-12T12:47:39;11.57;;;10.50;;
1701;SDS011;848;48.354;10.064;2023-09-12T12:50:10;21.13;;;11.60;;
1701;SDS011;848;48.354;10.064;2023-09-12T12:52:37;10.80;;;9.70;;
1701;SDS011;848;48.354;10.064;2023-09-12T12:55:04;14.23;;;10.73;;
1701;SDS011;848;48.354;10.064;2023-09-12T12:57:35;11.67;;;10.57;;
1701;SDS011;848;48.354;10.064;2023-09-12T13:00:04;10.50;;;9.30;;
1701;SDS011;848;48.354;10.064;2023-09-12T13:02:33;10.17;;;9.10;;
1701;SDS011;848;48.354;10.064;2023-09-12T13:05:01;10.80;;;9.90;;
1701;SDS011;848;48.354;10.064;2023-09-12T13:07:29;12.17;;;9.60;;
1701;SDS011;848;48.354;10.064;2023-09-12T13:09:56;11.37;;;9.80;;
1701;SDS011;848;48.354;10.064;2023-09-12T13:12:23;9.60;;;8.70;;
1701;SDS011;848;48.354;10.064;2023-09-12T13:14:50;11.73;;;10.53;;
1701;SDS011;848;48.354;10.064;2023-09-12T13:17:17;12.57;;;9.07;;
1701;SDS011;848;48.354;10.064;2023-09-12T13:19:44;11.47;;;10.37;;
1701;SDS011;848;48.354;10.064;2023-09-12T13:22:11;8.97;;;8.13;;
1701;SDS011;848;48.354;10.064;2023-09-12T13:24:39;12.73;;;9.50;;
1701;SDS011;848;48.354;10.064;2023-09-12T13:27:06;11.43;;;9.67;;
1701;SDS011;848;48.354;10.064;2023-09-12T13:29:33;9.63;;;8.73;;
1701;SDS011;848;48.354;10.064;2023-09-12T13:32:00;9.80;;;8.80;;
1701;SDS011;848;48.354;10.064;2023-09-12T13:34:27;9.67;;;8.70;;
1701;SDS011;848;48.354;10.064;2023-09-12T13:36:53;8.97;;;8.13;;
1701;SDS011;848;48.354;10.064;2023-09-12T13:39:22;8.70;;;7.90;;
1701;SDS011;848;48.354;10.064;2023-09-12T13:41:50;9.77;;;8.87;;
1701;SDS011;848;48.354;10.064;2023-09-12T13:44:17;8.93;;;8.13;;
1701;SDS011;848;48.354;10.064;2023-09-12T13:46:44;10.33;;;9.17;;
1701;SDS011;848;48.354;10.064;2023-09-12T13:49:12;9.87;;;8.87;;
1701;SDS011;848;48.354;10.064;2023-09-12T13:51:39;10.50;;;9.10;;
1701;SDS011;848;48.354;10.064;2023-09-12T13:54:06;10.57;;;9.57;;
1701;SDS011;848;48.354;10.064;2023-09-12T13:56:39;11.07;;;9.97;;
1701;SDS011;848;48.354;10.064;2023-09-12T13:59:07;9.53;;;8.67;;
1701;SDS011;848;48.354;10.064;2023-09-12T14:01:34;8.90;;;8.10;;
1701;SDS011;848;48.354;10.064;2023-09-12T14:04:01;9.67;;;8.67;;
1701;SDS011;848;48.354;10.064;2023-09-12T14:06:28;10.20;;;8.63;;
1701;SDS011;848;48.354;10.064;2023-09-12T14:08:55;9.87;;;8.87;;
1701;SDS011;848;48.354;10.064;2023-09-12T14:11:22;10.27;;;9.10;;
1701;SDS011;848;48.354;10.064;2023-09-12T14:13:49;10.30;;;9.37;;
1701;SDS011;848;48.354;10.064;2023-09-12T14:16:17;10.17;;;9.13;;
1701;SDS011;848;48.354;10.064;2023-09-12T14:18:44;10.10;;;9.03;;
1701;SDS011;848;48.354;10.064;2023-09-12T14:21:11;11.43;;;9.20;;
1701;SDS011;848;48.354;10.064;2023-09-12T14:23:38;10.00;;;9.00;;
1701;SDS011;848;48.354;10.064;2023-09-12T14:26:05;9.97;;;9.00;;
1701;SDS011;848;48.354;10.064;2023-09-12T14:28:32;10.20;;;9.20;;
1701;SDS011;848;48.354;10.064;2023-09-12T14:30:59;9.20;;;8.30;;
1701;SDS011;848;48.354;10.064;2023-09-12T14:33:30;10.47;;;9.37;;
1701;SDS011;848;48.354;10.064;2023-09-12T14:35:57;10.17;;;9.17;;
1701;SDS011;848;48.354;10.064;2023-09-12T14:38:23;10.30;;;9.40;;
1701;SDS011;848;48.354;10.064;2023-09-12T14:40:52;10.83;;;9.73;;
1701;SDS011;848;48.354;10.064;2023-09-12T14:43:19;9.33;;;8.47;;
1701;SDS011;848;48.354;10.064;2023-09-12T14:45:46;9.47;;;8.23;;
1701;SDS011;848;48.354;10.064;2023-09-12T14:48:13;11.70;;;8.70;;
1701;SDS011;848;48.354;10.064;2023-09-12T14:50:41;12.83;;;8.90;;
1701;SDS011;848;48.354;10.064;2023-09-12T14:53:08;9.90;;;8.90;;
1701;SDS011;848;48.354;10.064;2023-09-12T14:55:36;10.40;;;9.20;;
1701;SDS011;848;48.354;10.064;2023-09-12T14:58:03;12.30;;;9.00;;
1701;SDS011;848;48.354;10.064;2023-09-12T15:00:30;8.70;;;8.00;;
1701;SDS011;848;48.354;10.064;2023-09-12T15:02:58;10.10;;;9.10;;
1701;SDS011;848;48.354;10.064;2023-09-12T15:05:26;10.00;;;9.00;;